Time;durP1;ratioP1;P1;durP2;ratioP2;P2;SDS_P1;SDS_P2;PMS_P1;PMS_P2;Temp;Humidity;BMP_temperature;BMP_pressure;BME280_temperature;BME280_humidity;BME280_pressure;Samples;Min_cycle;Max_cycle;Signal;HPM_P1;HPM_P2
2024/03/29 00:02:28;;;;;;;1.50;1.17;;;;;;;;;;5062825;28;20180;-89
2024/03/29 00:05:36;;;;;;;2.27;0.93;;;;;;;;;;5051196;28;20218;-89
2024/03/29 00:08:40;;;;;;;1.70;1.20;;;;;;;;;;5062905;28;20183;-90
2024/03/29 00:11:44;;;;;;;5.87;1.20;;;;;;;;;;5062743;28;20209;-89
2024/03/29 00:14:49;;;;;;;2.03;1.30;;;;;;;;;;5062640;28;20183;-89
2024/03/29 00:17:53;;;;;;;1.30;1.20;;;;;;;;;;5039849;28;20548;-89
2024/03/29 00:20:57;;;;;;;4.30;1.20;;;;;;;;;;5051301;28;20547;-89
2024/03/29 00:24:01;;;;;;;3.50;1.30;;;;;;;;;;5051218;28;20648;-89
2024/03/29 00:27:05;;;;;;;2.37;1.40;;;;;;;;;;5074571;28;20215;-89
2024/03/29 00:30:10;;;;;;;1.77;1.00;;;;;;;;;;5052080;28;20179;-89
2024/03/29 00:33:14;;;;;;;1.40;1.10;;;;;;;;;;5062514;28;20180;-89
2024/03/29 00:36:18;;;;;;;1.50;1.03;;;;;;;;;;5039801;28;20227;-89
2024/03/29 00:39:23;;;;;;;2.00;1.20;;;;;;;;;;5051350;28;20184;-89
2024/03/29 00:42:27;;;;;;;1.97;1.10;;;;;;;;;;5073469;28;20179;-89
2024/03/29 00:45:31;;;;;;;3.03;1.10;;;;;;;;;;5043018;28;20210;-89
2024/03/29 00:48:35;;;;;;;1.87;1.00;;;;;;;;;;5066518;28;20183;-89
2024/03/29 00:51:39;;;;;;;1.10;1.00;;;;;;;;;;5065910;28;20563;-89
2024/03/29 00:54:44;;;;;;;2.43;1.10;;;;;;;;;;5042897;28;20180;-89
2024/03/29 00:57:48;;;;;;;1.10;0.80;;;;;;;;;;5054322;28;20180;-89
2024/03/29 01:00:52;;;;;;;1.10;0.93;;;;;;;;;;5054551;28;20612;-89
2024/03/29 01:03:56;;;;;;;1.00;0.90;;;;;;;;;;5043273;28;20620;-89
2024/03/29 01:07:00;;;;;;;1.37;1.03;;;;;;;;;;5065401;28;20215;-89
2024/03/29 01:10:05;;;;;;;3.40;0.80;;;;;;;;;;5065318;28;20254;-89
2024/03/29 01:13:09;;;;;;;0.90;0.80;;;;;;;;;;5065685;28;20179;-89
2024/03/29 01:16:13;;;;;;;1.00;0.70;;;;;;;;;;5053463;28;20227;-89
2024/03/29 01:19:18;;;;;;;0.77;0.77;;;;;;;;;;5065910;28;20187;-90
2024/03/29 01:22:22;;;;;;;1.43;0.87;;;;;;;;;;5054117;28;20548;-89
2024/03/29 01:25:27;;;;;;;1.17;0.70;;;;;;;;;;5064890;28;20691;-90
2024/03/29 01:28:31;;;;;;;2.00;0.87;;;;;;;;;;5054261;28;20183;-89
2024/03/29 01:31:36;;;;;;;0.93;0.70;;;;;;;;;;5064815;28;20188;-89
2024/03/29 01:34:40;;;;;;;1.20;0.70;;;;;;;;;;5064768;28;20183;-89
2024/03/29 01:37:44;;;;;;;1.07;0.80;;;;;;;;;;5065078;28;20179;-89
2024/03/29 01:40:49;;;;;;;1.47;0.63;;;;;;;;;;5065246;28;20575;-89
2024/03/29 01:43:53;;;;;;;1.20;0.80;;;;;;;;;;5042175;28;20181;-89
2024/03/29 01:46:58;;;;;;;0.90;0.70;;;;;;;;;;5041826;28;20211;-89
2024/03/29 01:50:03;;;;;;;3.20;0.80;;;;;;;;;;5053664;28;20175;-89
2024/03/29 01:53:08;;;;;;;1.77;1.03;;;;;;;;;;5053297;28;20175;-90
2024/03/29 01:56:14;;;;;;;0.97;0.60;;;;;;;;;;5052867;28;20691;-89
2024/03/29 01:59:19;;;;;;;1.13;0.90;;;;;;;;;;5064879;28;20207;-89
2024/03/29 02:02:23;;;;;;;1.30;0.87;;;;;;;;;;5064150;28;20175;-89
2024/03/29 02:05:27;;;;;;;1.47;0.73;;;;;;;;;;5052898;28;20215;-90
2024/03/29 02:08:33;;;;;;;0.97;0.80;;;;;;;;;;5041606;28;20175;-89
2024/03/29 02:11:37;;;;;;;3.50;1.00;;;;;;;;;;5052763;28;20180;-89
2024/03/29 02:14:42;;;;;;;0.83;0.70;;;;;;;;;;5053791;28;20191;-89
2024/03/29 02:17:46;;;;;;;0.87;0.63;;;;;;;;;;5064183;28;20179;-90
2024/03/29 02:20:50;;;;;;;1.17;0.87;;;;;;;;;;5053028;28;20620;-89
2024/03/29 02:24:21;;;;;;;0.73;0.70;;;;;;;;;;5053069;28;20183;-89
2024/03/29 02:27:25;;;;;;;0.70;0.70;;;;;;;;;;5064207;28;20171;-89
2024/03/29 02:30:30;;;;;;;1.00;0.87;;;;;;;;;;5052527;28;20183;-89
2024/03/29 02:33:34;;;;;;;1.13;0.80;;;;;;;;;;5063496;28;20183;-89
2024/03/29 02:36:38;;;;;;;1.10;0.70;;;;;;;;;;5041114;28;20227;-89
2024/03/29 02:39:43;;;;;;;0.77;0.73;;;;;;;;;;5063878;28;20179;-90
2024/03/29 02:42:48;;;;;;;1.60;1.00;;;;;;;;;;5041142;28;20548;-89
2024/03/29 02:45:52;;;;;;;1.10;0.80;;;;;;;;;;5063926;28;20223;-89
2024/03/29 02:48:56;;;;;;;1.00;0.90;;;;;;;;;;5040813;28;20175;-90
2024/03/29 02:52:00;;;;;;;0.70;0.70;;;;;;;;;;5063960;28;20187;-89
2024/03/29 02:55:05;;;;;;;1.50;0.93;;;;;;;;;;5063399;28;20175;-89
2024/03/29 02:58:09;;;;;;;0.80;0.80;;;;;;;;;;5051548;28;20195;-90
2024/03/29 03:01:13;;;;;;;1.20;0.90;;;;;;;;;;5063556;28;20179;-89
2024/03/29 03:04:17;;;;;;;1.30;0.87;;;;;;;;;;5052060;28;20184;-89
2024/03/29 03:10:58;;;;;;;2.60;0.80;;;;;;;;;;5064421;28;20179;-89
2024/03/29 03:14:03;;;;;;;0.90;0.73;;;;;;;;;;5064869;28;20176;-89
2024/03/29 03:17:07;;;;;;;0.70;0.70;;;;;;;;;;5041256;28;20223;-89
2024/03/29 03:20:13;;;;;;;1.63;0.80;;;;;;;;;;5052528;28;20183;-89
2024/03/29 03:23:17;;;;;;;0.90;0.70;;;;;;;;;;5064239;28;20184;-89
2024/03/29 03:26:21;;;;;;;1.00;0.90;;;;;;;;;;5062890;28;20579;-89
2024/03/29 03:29:27;;;;;;;0.73;0.73;;;;;;;;;;5063448;28;20235;-89
2024/03/29 03:32:31;;;;;;;2.00;0.80;;;;;;;;;;5053260;28;20179;-89
2024/03/29 03:35:35;;;;;;;0.60;0.60;;;;;;;;;;5053249;28;20211;-89
2024/03/29 03:38:40;;;;;;;1.73;0.73;;;;;;;;;;5063132;28;20632;-89
2024/03/29 03:41:43;;;;;;;0.83;0.60;;;;;;;;;;5063208;28;20184;-89
2024/03/29 03:44:48;;;;;;;0.60;0.50;;;;;;;;;;5062919;28;20543;-89
2024/03/29 03:47:52;;;;;;;1.20;0.77;;;;;;;;;;5051417;28;20656;-89
2024/03/29 03:50:56;;;;;;;0.77;0.70;;;;;;;;;;5051711;28;20184;-89
2024/03/29 03:54:00;;;;;;;1.13;0.67;;;;;;;;;;5040286;28;20183;-89
2024/03/29 03:57:05;;;;;;;0.60;0.60;;;;;;;;;;5062710;28;20238;-89
2024/03/29 04:00:09;;;;;;;0.60;0.60;;;;;;;;;;5063087;28;20172;-89
2024/03/29 04:03:17;;;;;;;0.60;0.60;;;;;;;;;;5040387;28;20183;-89
2024/03/29 04:06:21;;;;;;;0.63;0.60;;;;;;;;;;5050766;28;20686;-89
2024/03/29 04:09:26;;;;;;;1.63;0.60;;;;;;;;;;5062873;28;20183;-89
2024/03/29 04:12:29;;;;;;;0.83;0.67;;;;;;;;;;5039487;28;20184;-89
2024/03/29 04:15:34;;;;;;;1.07;0.70;;;;;;;;;;5051343;28;20211;-89
2024/03/29 04:18:38;;;;;;;0.73;0.70;;;;;;;;;;5053773;28;20628;-89
2024/03/29 04:21:42;;;;;;;0.73;0.70;;;;;;;;;;5043923;28;20183;-89
2024/03/29 04:24:46;;;;;;;1.30;0.53;;;;;;;;;;5043818;28;20183;-89
2024/03/29 04:27:50;;;;;;;0.60;0.60;;;;;;;;;;5065828;28;20176;-89
2024/03/29 04:30:59;;;;;;;0.67;0.67;;;;;;;;;;5065792;28;20628;-89
2024/03/29 04:34:03;;;;;;;3.27;0.80;;;;;;;;;;5043203;28;20184;-90
2024/03/29 04:37:07;;;;;;;0.90;0.70;;;;;;;;;;5066029;28;20218;-89
2024/03/29 04:40:11;;;;;;;0.60;0.60;;;;;;;;;;5054489;28;20183;-89
2024/03/29 04:43:15;;;;;;;0.63;0.60;;;;;;;;;;5054322;28;20180;-89
2024/03/29 04:46:19;;;;;;;0.60;0.60;;;;;;;;;;5043026;28;20215;-89
2024/03/29 04:49:39;;;;;;;0.93;0.80;;;;;;;;;;5077268;28;20179;-89
2024/03/29 04:52:43;;;;;;;0.87;0.60;;;;;;;;;;5054514;28;20176;-89
2024/03/29 04:55:54;;;;;;;0.70;0.67;;;;;;;;;;5054927;28;20215;-89
2024/03/29 04:58:58;;;;;;;2.27;0.60;;;;;;;;;;5043868;28;20207;-89
2024/03/29 05:02:03;;;;;;;0.50;0.50;;;;;;;;;;5054454;28;20183;-89
2024/03/29 05:05:07;;;;;;;0.60;0.57;;;;;;;;;;5077735;28;20179;-89
2024/03/29 05:08:11;;;;;;;1.80;0.60;;;;;;;;;;5065606;28;20542;-89
2024/03/29 05:11:15;;;;;;;0.67;0.60;;;;;;;;;;5065330;28;20175;-89
2024/03/29 05:14:22;;;;;;;0.50;0.50;;;;;;;;;;5065390;28;20195;-89
2024/03/29 05:17:27;;;;;;;0.80;0.60;;;;;;;;;;5065269;28;20211;-89
2024/03/29 05:20:31;;;;;;;0.70;0.70;;;;;;;;;;5065192;28;20183;-89
2024/03/29 05:23:35;;;;;;;1.47;0.67;;;;;;;;;;5042925;28;20624;-89
2024/03/29 05:26:39;;;;;;;0.90;0.70;;;;;;;;;;5053852;28;20671;-89
2024/03/29 05:29:43;;;;;;;0.73;0.60;;;;;;;;;;5076053;28;20188;-89
2024/03/29 05:32:47;;;;;;;1.10;0.63;;;;;;;;;;5065034;28;20180;-89
2024/03/29 05:35:51;;;;;;;0.83;0.60;;;;;;;;;;5042519;28;20223;-89
2024/03/29 05:38:56;;;;;;;1.20;0.80;;;;;;;;;;5053195;28;20636;-89
2024/03/29 05:42:00;;;;;;;0.77;0.63;;;;;;;;;;5053431;28;20636;-89
2024/03/29 05:45:05;;;;;;;1.20;0.70;;;;;;;;;;5065072;28;20250;-90
2024/03/29 05:48:10;;;;;;;0.77;0.50;;;;;;;;;;5041992;28;20179;-89
2024/03/29 05:51:14;;;;;;;2.03;0.90;;;;;;;;;;5064855;28;20176;-89
2024/03/29 05:54:18;;;;;;;1.07;0.60;;;;;;;;;;5053109;28;20540;-90
2024/03/29 05:57:27;;;;;;;1.63;0.73;;;;;;;;;;5064445;28;20219;-89
2024/03/29 06:00:34;;;;;;;0.70;0.57;;;;;;;;;;5041443;28;20173;-88
2024/03/29 06:03:38;;;;;;;0.80;0.60;;;;;;;;;;5052857;28;20184;-88
2024/03/29 06:06:43;;;;;;;1.37;0.60;;;;;;;;;;5053158;28;20215;-89
2024/03/29 06:09:47;;;;;;;1.83;0.50;;;;;;;;;;5064312;28;20184;-89
2024/03/29 06:12:51;;;;;;;2.93;0.60;;;;;;;;;;5064156;28;20180;-88
2024/03/29 06:19:18;;;;;;;4.13;0.43;;;;;;;;;;5052615;28;20184;-90
2024/03/29 06:22:25;;;;;;;1.10;0.60;;;;;;;;;;5053513;28;20544;-90
2024/03/29 06:25:29;;;;;;;0.50;0.50;;;;;;;;;;5041114;28;20679;-89
2024/03/29 06:28:33;;;;;;;0.60;0.60;;;;;;;;;;5052944;28;20175;-92
2024/03/29 06:31:38;;;;;;;0.70;0.60;;;;;;;;;;5041928;28;20179;-92
2024/03/29 06:34:43;;;;;;;0.90;0.60;;;;;;;;;;5053796;28;20183;-92
2024/03/29 06:37:46;;;;;;;0.63;0.60;;;;;;;;;;5042151;28;20203;-92
2024/03/29 06:40:50;;;;;;;0.63;0.50;;;;;;;;;;5040819;28;20187;-92
2024/03/29 06:43:54;;;;;;;0.40;0.40;;;;;;;;;;5052933;28;20175;-92
2024/03/29 06:47:00;;;;;;;0.60;0.60;;;;;;;;;;5053208;28;20210;-92
2024/03/29 06:50:06;;;;;;;0.60;0.40;;;;;;;;;;5041663;28;20183;-92
2024/03/29 06:53:10;;;;;;;1.53;0.50;;;;;;;;;;5053090;28;20179;-92
2024/03/29 06:56:15;;;;;;;1.70;0.50;;;;;;;;;;5040781;28;20211;-92
2024/03/29 06:59:19;;;;;;;0.50;0.50;;;;;;;;;;5041254;28;20195;-90
2024/03/29 07:02:24;;;;;;;0.50;0.50;;;;;;;;;;5041135;28;20184;-90
2024/03/29 07:05:28;;;;;;;0.50;0.50;;;;;;;;;;5052183;28;20214;-88
2024/03/29 07:08:32;;;;;;;0.60;0.60;;;;;;;;;;5064848;28;20171;-88
2024/03/29 07:11:36;;;;;;;0.80;0.50;;;;;;;;;;5065137;28;20567;-87
2024/03/29 07:14:47;;;;;;;0.50;0.50;;;;;;;;;;5078896;28;20180;-86
2024/03/29 07:17:52;;;;;;;0.77;0.50;;;;;;;;;;5042265;28;20207;-86
2024/03/29 07:21:34;;;;;;;0.90;0.70;;;;;;;;;;5076797;28;20183;-90
2024/03/29 07:30:18;;;;;;;0.50;0.50;;;;;;;;;;5083273;28;20188;-89
2024/03/29 07:38:39;;;;;;;0.40;0.40;;;;;;;;;;5077859;28;20203;-88
2024/03/29 07:42:10;;;;;;;0.83;0.60;;;;;;;;;;5075292;28;20203;-88
2024/03/29 07:46:36;;;;;;;1.60;0.60;;;;;;;;;;5076037;28;20215;-88
2024/03/29 07:50:10;;;;;;;0.60;0.53;;;;;;;;;;5052981;28;20171;-88
2024/03/29 07:58:26;;;;;;;0.50;0.50;;;;;;;;;;5082944;28;20226;-88
2024/03/29 08:01:31;;;;;;;0.60;0.40;;;;;;;;;;5055949;28;20176;-86
2024/03/29 08:04:35;;;;;;;1.23;0.50;;;;;;;;;;5079452;28;20176;-88
2024/03/29 08:07:39;;;;;;;0.50;0.43;;;;;;;;;;5055642;28;20171;-87
2024/03/29 08:10:44;;;;;;;0.93;0.50;;;;;;;;;;5055806;28;20179;-87
2024/03/29 08:13:48;;;;;;;0.40;0.40;;;;;;;;;;5055272;28;20176;-87
2024/03/29 08:16:52;;;;;;;0.57;0.47;;;;;;;;;;5055212;28;20214;-87
2024/03/29 08:19:56;;;;;;;0.50;0.40;;;;;;;;;;5044101;28;20628;-87
2024/03/29 08:23:01;;;;;;;0.70;0.60;;;;;;;;;;5067144;28;20180;-87
2024/03/29 08:26:05;;;;;;;2.90;0.80;;;;;;;;;;5066336;28;20223;-87
2024/03/29 08:29:08;;;;;;;0.60;0.60;;;;;;;;;;5078831;28;20176;-87
2024/03/29 08:32:13;;;;;;;1.07;0.70;;;;;;;;;;5043440;28;20205;-87
2024/03/29 08:35:17;;;;;;;1.50;1.00;;;;;;;;;;5067009;28;20184;-87
2024/03/29 08:38:21;;;;;;;0.70;0.60;;;;;;;;;;5065476;28;20211;-88
2024/03/29 08:41:25;;;;;;;1.23;0.57;;;;;;;;;;5065665;28;20183;-87
2024/03/29 08:44:29;;;;;;;0.40;0.40;;;;;;;;;;5066015;28;20184;-88
2024/03/29 08:47:34;;;;;;;0.47;0.40;;;;;;;;;;5065492;28;20628;-87
2024/03/29 08:50:38;;;;;;;0.70;0.50;;;;;;;;;;5042992;28;20183;-87
2024/03/29 08:53:42;;;;;;;0.30;0.30;;;;;;;;;;5077045;28;20183;-88
2024/03/29 08:56:47;;;;;;;0.90;0.40;;;;;;;;;;5053763;28;20210;-88
2024/03/29 08:59:51;;;;;;;0.77;0.60;;;;;;;;;;5076187;28;20203;-88
2024/03/29 09:02:56;;;;;;;0.73;0.50;;;;;;;;;;5065406;28;20184;-87
2024/03/29 09:06:01;;;;;;;0.53;0.53;;;;;;;;;;5042131;28;20215;-91
2024/03/29 09:09:06;;;;;;;0.50;0.50;;;;;;;;;;5042494;28;20180;-84
2024/03/29 09:13:00;;;;;;;0.47;0.40;;;;;;;;;;5077199;28;20187;-88
2024/03/29 09:16:04;;;;;;;0.70;0.50;;;;;;;;;;5064874;28;20207;-88
2024/03/29 09:19:09;;;;;;;1.87;0.60;;;;;;;;;;5053198;28;20203;-88
2024/03/29 09:22:13;;;;;;;0.50;0.40;;;;;;;;;;5064452;28;20521;-88
2024/03/29 09:25:18;;;;;;;0.77;0.40;;;;;;;;;;5053206;28;20187;-90
2024/03/29 09:28:22;;;;;;;1.27;0.60;;;;;;;;;;5053361;28;20513;-85
2024/03/29 09:31:27;;;;;;;0.40;0.40;;;;;;;;;;5052986;28;20175;-87
2024/03/29 09:34:31;;;;;;;0.87;0.70;;;;;;;;;;5053128;28;20202;-86
2024/03/29 09:37:36;;;;;;;3.00;0.80;;;;;;;;;;5053614;28;20171;-80
2024/03/29 09:40:40;;;;;;;1.23;0.70;;;;;;;;;;5065425;28;20184;-85
2024/03/29 09:44:06;;;;;;;2.43;0.73;;;;;;;;;;5064331;28;20179;-89
2024/03/29 09:47:39;;;;;;;1.47;0.80;;;;;;;;;;5052165;28;20214;-88
2024/03/29 09:50:45;;;;;;;1.50;0.50;;;;;;;;;;5052876;28;20521;-88
2024/03/29 10:04:07;;;;;;;1.20;0.80;;;;;;;;;;4975226;28;20526;-89
2024/03/29 10:12:35;;;;;;;1.90;1.20;;;;;;;;;;4974970;28;20194;-80
2024/03/29 10:37:07;;;;;;;1.03;0.93;;;;;;;;;;4994725;28;20218;-89
2024/03/29 10:40:16;;;;;;;1.30;0.50;;;;;;;;;;5049127;28;20545;-90
2024/03/29 10:43:21;;;;;;;0.87;0.60;;;;;;;;;;5075063;28;20521;-89
2024/03/29 10:46:26;;;;;;;0.57;0.50;;;;;;;;;;5064080;28;20218;-88
2024/03/29 10:49:34;;;;;;;1.30;0.80;;;;;;;;;;5052345;28;20179;-89
2024/03/29 10:52:40;;;;;;;0.80;0.60;;;;;;;;;;5051591;28;20175;-90
2024/03/29 10:55:45;;;;;;;1.73;0.70;;;;;;;;;;5040018;28;20215;-89
2024/03/29 10:58:52;;;;;;;1.17;0.63;;;;;;;;;;5040658;28;20207;-89
2024/03/29 11:02:00;;;;;;;3.53;0.93;;;;;;;;;;5038596;28;20210;-85
2024/03/29 11:05:08;;;;;;;5.03;1.60;;;;;;;;;;5056441;28;20534;-83
2024/03/29 11:08:17;;;;;;;1.43;0.63;;;;;;;;;;5056875;28;20176;-81
2024/03/29 11:11:25;;;;;;;0.87;0.60;;;;;;;;;;5068500;28;20204;-81
2024/03/29 11:14:42;;;;;;;6.23;2.33;;;;;;;;;;5077182;28;20195;-82
2024/03/29 11:17:47;;;;;;;7.97;5.30;;;;;;;;;;5073602;28;20715;-82
2024/03/29 11:20:51;;;;;;;2.88;1.02;;;;;;;;;;5059398;28;20687;-85
2024/03/29 11:23:57;;;;;;;3.37;1.20;;;;;;;;;;5050566;28;20191;-85
2024/03/29 11:32:33;;;;;;;0.80;0.60;;;;;;;;;;5080334;28;20191;-87
2024/03/29 11:35:40;;;;;;;6.10;0.93;;;;;;;;;;5040411;28;20216;-84
2024/03/29 11:38:46;;;;;;;1.93;1.10;;;;;;;;;;5063365;28;20203;-83
2024/03/29 11:42:40;;;;;;;1.87;1.10;;;;;;;;;;5063506;28;20184;-90
2024/03/29 11:46:44;;;;;;;7.63;5.00;;;;;;;;;;5052742;28;20676;-89
2024/03/29 11:50:14;;;;;;;1.20;0.90;;;;;;;;;;5066407;28;20180;-82
2024/03/29 11:53:21;;;;;;;3.73;2.13;;;;;;;;;;5077098;28;20179;-80
2024/03/29 11:56:26;;;;;;;1.60;0.83;;;;;;;;;;5061553;28;20219;-87
2024/03/29 11:59:55;;;;;;;1.03;0.53;;;;;;;;;;5049248;28;20199;-86
2024/03/29 12:03:06;;;;;;;1.97;1.70;;;;;;;;;;5049581;28;20184;-86
2024/03/29 12:06:10;;;;;;;9.63;4.40;;;;;;;;;;5050636;28;20568;-81
2024/03/29 12:10:02;;;;;;;2.90;1.40;;;;;;;;;;5063567;28;20191;-87
2024/03/29 12:19:11;;;;;;;3.07;1.23;;;;;;;;;;5080928;28;20180;-90
2024/03/29 12:28:15;;;;;;;1.73;0.83;;;;;;;;;;5080285;28;20196;-89
2024/03/29 12:31:21;;;;;;;1.27;0.70;;;;;;;;;;5031661;28;20172;-86
2024/03/29 12:34:54;;;;;;;1.67;1.00;;;;;;;;;;5046998;28;20545;-87
2024/03/29 12:38:00;;;;;;;6.17;2.37;;;;;;;;;;5051682;28;20632;-85
2024/03/29 12:41:04;;;;;;;5.87;1.87;;;;;;;;;;5043880;28;20171;-82
2024/03/29 12:44:09;;;;;;;3.43;1.20;;;;;;;;;;5077816;28;20209;-86
2024/03/29 12:47:14;;;;;;;4.90;1.03;;;;;;;;;;5067995;28;20568;-80
2024/03/29 12:50:31;;;;;;;2.70;1.13;;;;;;;;;;5080497;28;20180;-80
2024/03/29 12:53:38;;;;;;;3.60;0.80;;;;;;;;;;5075671;28;20196;-78
2024/03/29 12:56:42;;;;;;;4.80;1.07;;;;;;;;;;5077509;28;20227;-79
2024/03/29 12:59:47;;;;;;;2.23;0.70;;;;;;;;;;5079145;28;20211;-79
2024/03/29 13:02:51;;;;;;;1.77;0.63;;;;;;;;;;5079356;28;20176;-80
2024/03/29 13:05:55;;;;;;;2.77;0.50;;;;;;;;;;5084787;28;20211;-81
2024/03/29 13:09:00;;;;;;;1.00;0.80;;;;;;;;;;5085262;28;20192;-82
2024/03/29 13:12:04;;;;;;;1.83;0.77;;;;;;;;;;5071702;28;20195;-83
2024/03/29 13:15:38;;;;;;;2.80;0.70;;;;;;;;;;5071163;28;20200;-82
2024/03/29 13:18:54;;;;;;;2.63;0.85;;;;;;;;;;5063256;28;20731;-87
2024/03/29 13:21:59;;;;;;;1.07;0.67;;;;;;;;;;5039908;28;20180;-83
2024/03/29 13:25:04;;;;;;;0.80;0.60;;;;;;;;;;5061598;28;20176;-88
2024/03/29 13:28:10;;;;;;;1.73;0.70;;;;;;;;;;5028330;28;20510;-81
2024/03/29 13:31:14;;;;;;;1.60;0.60;;;;;;;;;;5051557;28;20491;-84
2024/03/29 13:34:19;;;;;;;2.33;0.77;;;;;;;;;;5039531;28;20180;-80
2024/03/29 13:37:26;;;;;;;1.00;0.67;;;;;;;;;;5065444;28;20215;-81
2024/03/29 13:40:32;;;;;;;1.27;0.80;;;;;;;;;;5066138;28;20204;-81
2024/03/29 13:43:39;;;;;;;1.90;0.70;;;;;;;;;;5066136;28;20177;-81
2024/03/29 13:46:45;;;;;;;1.50;0.80;;;;;;;;;;5066925;28;20219;-81
2024/03/29 13:49:52;;;;;;;1.07;0.60;;;;;;;;;;5054500;28;20176;-80
2024/03/29 13:52:58;;;;;;;1.17;0.90;;;;;;;;;;5066866;28;20172;-80
2024/03/29 13:56:03;;;;;;;2.17;0.90;;;;;;;;;;5054637;28;20215;-81
2024/03/29 13:59:07;;;;;;;1.60;1.00;;;;;;;;;;5066719;28;20212;-85
2024/03/29 14:02:15;;;;;;;1.27;0.90;;;;;;;;;;5053160;28;20203;-84
2024/03/29 14:05:20;;;;;;;1.70;0.90;;;;;;;;;;5078833;28;20557;-84
2024/03/29 14:08:25;;;;;;;1.43;0.90;;;;;;;;;;5070993;28;20179;-86
2024/03/29 14:11:30;;;;;;;2.30;0.90;;;;;;;;;;5083909;28;20176;-85
2024/03/29 14:14:34;;;;;;;3.03;0.87;;;;;;;;;;5071166;28;20216;-88
2024/03/29 14:17:40;;;;;;;1.50;1.00;;;;;;;;;;5070273;28;20189;-86
2024/03/29 14:20:45;;;;;;;1.80;0.70;;;;;;;;;;5082001;28;20213;-87
2024/03/29 14:23:49;;;;;;;2.57;0.80;;;;;;;;;;5046587;28;20174;-86
2024/03/29 14:26:57;;;;;;;2.60;0.80;;;;;;;;;;5057531;28;20219;-86
2024/03/29 14:30:02;;;;;;;2.17;0.70;;;;;;;;;;5068913;28;20178;-86
2024/03/29 14:33:07;;;;;;;1.00;0.60;;;;;;;;;;5068647;28;20183;-86
2024/03/29 14:36:11;;;;;;;1.03;0.57;;;;;;;;;;5068986;28;20215;-86
2024/03/29 14:39:18;;;;;;;1.60;0.73;;;;;;;;;;5068116;28;20211;-86
2024/03/29 14:42:22;;;;;;;1.50;0.87;;;;;;;;;;5066951;28;20184;-86
2024/03/29 14:45:27;;;;;;;2.03;0.80;;;;;;;;;;5055069;28;20214;-86
2024/03/29 14:48:31;;;;;;;1.27;0.70;;;;;;;;;;5043627;28;20179;-86
2024/03/29 14:51:36;;;;;;;1.90;0.70;;;;;;;;;;5066531;28;20175;-86
2024/03/29 14:54:40;;;;;;;2.00;0.80;;;;;;;;;;5043980;28;20188;-84
2024/03/29 14:57:46;;;;;;;1.37;0.83;;;;;;;;;;5078071;28;20191;-85
2024/03/29 15:00:50;;;;;;;1.90;0.70;;;;;;;;;;5069873;28;20223;-85
2024/03/29 15:03:55;;;;;;;0.90;0.70;;;;;;;;;;5069573;28;20180;-84
2024/03/29 15:07:00;;;;;;;1.37;0.80;;;;;;;;;;5080721;28;20223;-86
2024/03/29 15:10:10;;;;;;;1.00;0.70;;;;;;;;;;5048365;28;20177;-83
2024/03/29 15:13:14;;;;;;;1.77;0.90;;;;;;;;;;5055387;28;20203;-84
2024/03/29 15:16:18;;;;;;;2.10;0.77;;;;;;;;;;5056454;28;20546;-84
2024/03/29 15:19:22;;;;;;;1.10;0.80;;;;;;;;;;5044979;28;20208;-83
2024/03/29 15:22:26;;;;;;;3.03;0.80;;;;;;;;;;5043286;28;20180;-84
2024/03/29 15:25:34;;;;;;;2.60;0.80;;;;;;;;;;5057996;28;20224;-84
2024/03/29 15:32:01;;;;;;;2.10;0.70;;;;;;;;;;5046273;28;20177;-82
2024/03/29 15:35:06;;;;;;;1.53;0.80;;;;;;;;;;5046715;28;20184;-82
2024/03/29 15:38:12;;;;;;;1.00;0.70;;;;;;;;;;5058092;28;20184;-82
2024/03/29 15:41:17;;;;;;;1.37;0.70;;;;;;;;;;5057986;28;20558;-81
2024/03/29 15:44:21;;;;;;;2.47;1.13;;;;;;;;;;5057431;28;20180;-81
2024/03/29 15:47:25;;;;;;;1.57;0.83;;;;;;;;;;5057493;28;20574;-81
2024/03/29 15:50:30;;;;;;;4.33;1.27;;;;;;;;;;5065530;28;20202;-83
2024/03/29 15:53:35;;;;;;;2.87;1.10;;;;;;;;;;5059055;28;20195;-84
2024/03/29 15:56:39;;;;;;;1.50;1.00;;;;;;;;;;5060497;28;20224;-84
2024/03/29 15:59:47;;;;;;;2.03;1.10;;;;;;;;;;5044112;28;20212;-82
2024/03/29 16:02:51;;;;;;;2.10;1.07;;;;;;;;;;5056892;28;20176;-81
2024/03/29 16:05:56;;;;;;;2.17;1.23;;;;;;;;;;5056737;28;20574;-82
2024/03/29 16:09:02;;;;;;;2.40;1.60;;;;;;;;;;5043566;28;20176;-82
2024/03/29 16:12:06;;;;;;;2.90;1.60;;;;;;;;;;5031915;28;20172;-82
2024/03/29 16:15:11;;;;;;;2.07;1.40;;;;;;;;;;5046309;28;20176;-82
2024/03/29 16:18:16;;;;;;;1.80;0.90;;;;;;;;;;5058876;28;20177;-82
2024/03/29 16:21:20;;;;;;;5.43;1.53;;;;;;;;;;5058753;28;20274;-82
2024/03/29 16:24:24;;;;;;;2.03;1.00;;;;;;;;;;5045748;28;20183;-80
2024/03/29 16:27:28;;;;;;;2.77;1.03;;;;;;;;;;5059361;28;20657;-82
2024/03/29 16:30:32;;;;;;;1.97;1.00;;;;;;;;;;5059984;28;20172;-83
2024/03/29 16:33:38;;;;;;;1.70;0.93;;;;;;;;;;5059875;28;20183;-83
2024/03/29 16:36:48;;;;;;;3.13;0.90;;;;;;;;;;5059089;28;20216;-85
2024/03/29 16:39:55;;;;;;;3.03;0.80;;;;;;;;;;5034539;28;20204;-86
2024/03/29 16:42:59;;;;;;;2.23;1.17;;;;;;;;;;5036522;28;20172;-85
2024/03/29 16:46:04;;;;;;;2.80;1.60;;;;;;;;;;5044842;28;20707;-86
2024/03/29 16:49:11;;;;;;;2.63;1.60;;;;;;;;;;5057269;28;20180;-86
2024/03/29 16:52:15;;;;;;;2.47;1.40;;;;;;;;;;5034608;28;20180;-86
2024/03/29 16:55:48;;;;;;;5.07;1.50;;;;;;;;;;5045746;28;20184;-86
2024/03/29 16:59:19;;;;;;;2.40;1.30;;;;;;;;;;5046115;28;20180;-85
2024/03/29 17:02:35;;;;;;;2.00;1.20;;;;;;;;;;5065396;28;20215;-85
2024/03/29 17:06:41;;;;;;;0.83;0.80;;;;;;;;;;5076589;28;20215;-87
2024/03/29 17:10:58;;;;;;;2.23;1.20;;;;;;;;;;5054323;28;20188;-88
2024/03/29 17:15:00;;;;;;;2.27;1.10;;;;;;;;;;5046008;28;20176;-85
2024/03/29 17:24:37;;;;;;;2.23;1.03;;;;;;;;;;5066393;28;20192;-87
2024/03/29 17:29:11;;;;;;;2.03;1.03;;;;;;;;;;5064572;28;20545;-88
2024/03/29 17:37:19;;;;;;;1.53;1.10;;;;;;;;;;5064480;28;20219;-87
2024/03/29 17:40:28;;;;;;;1.50;1.10;;;;;;;;;;5065337;28;20207;-87
2024/03/29 17:43:37;;;;;;;2.10;1.20;;;;;;;;;;5064908;28;20168;-90
2024/03/29 17:46:48;;;;;;;1.93;1.00;;;;;;;;;;5061657;28;20684;-86
2024/03/29 17:50:12;;;;;;;2.90;1.13;;;;;;;;;;5042267;28;20172;-86
2024/03/29 17:58:36;;;;;;;1.97;1.23;;;;;;;;;;5077524;28;20609;-86
2024/03/29 18:02:05;;;;;;;5.53;1.23;;;;;;;;;;5053030;28;20224;-86
2024/03/29 18:05:47;;;;;;;1.90;1.10;;;;;;;;;;5053263;28;20184;-87
2024/03/29 18:08:52;;;;;;;2.70;1.10;;;;;;;;;;5066976;28;20175;-86
2024/03/29 18:12:21;;;;;;;5.47;1.40;;;;;;;;;;5053327;28;20176;-86
2024/03/29 18:19:46;;;;;;;10.33;1.60;;;;;;;;;;5064566;28;20199;-86
2024/03/29 18:23:39;;;;;;;9.80;1.30;;;;;;;;;;5070956;28;20179;-86
2024/03/29 18:27:41;;;;;;;12.83;2.30;;;;;;;;;;5076903;28;20208;-86
2024/03/29 18:31:12;;;;;;;10.93;2.17;;;;;;;;;;5052532;28;20652;-86
2024/03/29 18:34:21;;;;;;;18.07;2.37;;;;;;;;;;5064129;28;20179;-86
2024/03/29 18:37:25;;;;;;;23.57;3.43;;;;;;;;;;5064525;28;20210;-86
2024/03/29 18:40:29;;;;;;;24.50;3.70;;;;;;;;;;5052829;28;20203;-86
2024/03/29 18:43:34;;;;;;;21.87;3.70;;;;;;;;;;5064727;28;20175;-86
2024/03/29 18:46:38;;;;;;;34.50;5.23;;;;;;;;;;5053072;28;20215;-86
2024/03/29 18:49:42;;;;;;;29.10;4.40;;;;;;;;;;5053028;28;20183;-86
2024/03/29 18:53:07;;;;;;;28.37;5.00;;;;;;;;;;5064882;28;20180;-86
2024/03/29 18:57:04;;;;;;;25.30;4.30;;;;;;;;;;5076064;28;20207;-86
2024/03/29 19:05:11;;;;;;;31.73;4.70;;;;;;;;;;5076109;28;20225;-86
2024/03/29 19:08:17;;;;;;;33.63;4.90;;;;;;;;;;5052912;28;20188;-86
2024/03/29 19:11:23;;;;;;;34.23;5.17;;;;;;;;;;5052549;28;20172;-86
2024/03/29 19:14:28;;;;;;;35.43;5.87;;;;;;;;;;5052353;28;20184;-87
2024/03/29 19:17:33;;;;;;;43.73;5.63;;;;;;;;;;5051883;28;20176;-86
2024/03/29 19:20:37;;;;;;;31.50;4.90;;;;;;;;;;5040771;28;20663;-86
2024/03/29 19:23:46;;;;;;;33.87;6.07;;;;;;;;;;5063403;28;20187;-86
2024/03/29 19:26:55;;;;;;;39.13;5.17;;;;;;;;;;5063233;28;20211;-86
2024/03/29 19:30:00;;;;;;;33.20;6.17;;;;;;;;;;5063582;28;20180;-85
2024/03/29 19:33:04;;;;;;;36.90;5.20;;;;;;;;;;5063256;28;20172;-86
2024/03/29 19:36:09;;;;;;;38.67;5.43;;;;;;;;;;5051961;28;20207;-86
2024/03/29 19:39:38;;;;;;;33.37;5.77;;;;;;;;;;5041229;28;20179;-86
2024/03/29 19:42:42;;;;;;;35.50;5.77;;;;;;;;;;5063582;28;20167;-86
2024/03/29 19:45:46;;;;;;;30.23;6.20;;;;;;;;;;5051850;28;20226;-86
2024/03/29 19:48:50;;;;;;;35.47;4.80;;;;;;;;;;5074210;28;20183;-86
2024/03/29 19:51:57;;;;;;;37.23;5.67;;;;;;;;;;5064292;28;20179;-86
2024/03/29 19:55:07;;;;;;;37.17;6.23;;;;;;;;;;5052422;28;20183;-86
2024/03/29 19:58:28;;;;;;;46.53;7.30;;;;;;;;;;5064492;28;20172;-86
2024/03/29 20:02:37;;;;;;;65.23;7.37;;;;;;;;;;5077539;28;20199;-86
2024/03/29 20:07:18;;;;;;;50.10;8.13;;;;;;;;;;5065105;28;20781;-87
2024/03/29 20:10:23;;;;;;;55.70;9.20;;;;;;;;;;5063653;28;20183;-86
2024/03/29 20:13:27;;;;;;;59.73;8.87;;;;;;;;;;5040509;28;20175;-86
2024/03/29 20:16:31;;;;;;;57.50;8.63;;;;;;;;;;5054169;28;20557;-86
2024/03/29 20:19:35;;;;;;;61.73;9.50;;;;;;;;;;5040497;28;20179;-89
2024/03/29 20:22:40;;;;;;;73.63;10.17;;;;;;;;;;5051035;28;20199;-89
2024/03/29 20:25:44;;;;;;;85.07;11.83;;;;;;;;;;5051407;28;20223;-89
2024/03/29 20:28:48;;;;;;;75.97;10.00;;;;;;;;;;5062845;28;20209;-89
2024/03/29 20:31:54;;;;;;;63.00;10.50;;;;;;;;;;5062608;28;20179;-88
2024/03/29 20:34:58;;;;;;;79.30;11.13;;;;;;;;;;5075002;28;20182;-88
2024/03/29 20:38:02;;;;;;;89.67;11.40;;;;;;;;;;5051145;28;20190;-89